createdAt,value
2018-06-24T00:00:43.111Z,51.63
2018-06-24T00:03:11.817Z,52.04
2018-06-24T00:05:40.362Z,52.05
2018-06-24T00:08:09.282Z,51.70
2018-06-24T00:10:38.554Z,51.79
2018-06-24T00:13:08.080Z,51.99
2018-06-24T00:15:37.766Z,52.22
2018-06-24T00:18:06.405Z,52.06
2018-06-24T00:20:35.216Z,52.51
2018-06-24T00:23:06.364Z,53.33
2018-06-24T00:25:35.592Z,53.61
2018-06-24T00:28:05.215Z,54.37
2018-06-24T00:30:33.775Z,54.08
2018-06-24T00:33:02.364Z,54.93
2018-06-24T00:35:31.257Z,54.67
2018-06-24T00:38:00.701Z,54.95
2018-06-24T00:40:29.268Z,54.75
2018-06-24T00:42:58.605Z,55.14
2018-06-24T00:45:27.099Z,55.02
2018-06-24T00:47:57.202Z,54.91
2018-06-24T00:50:25.809Z,54.86
2018-06-24T00:52:55.118Z,54.72
2018-06-24T00:55:24.656Z,54.80
2018-06-24T00:57:53.225Z,54.66
2018-06-24T01:00:22.399Z,54.70
2018-06-24T01:02:50.934Z,54.95
2018-06-24T01:05:19.570Z,55.43
2018-06-24T01:07:48.067Z,55.27
2018-06-24T01:10:17.540Z,55.81
2018-06-24T01:12:46.186Z,55.32
2018-06-24T01:15:15.414Z,55.75
2018-06-24T01:17:44.381Z,55.60
2018-06-24T01:20:12.910Z,56.06
2018-06-24T01:22:42.229Z,55.92
2018-06-24T01:25:11.815Z,55.91
2018-06-24T01:27:40.646Z,55.97
2018-06-24T01:30:10.004Z,55.91
2018-06-24T01:32:38.599Z,56.26
2018-06-24T01:35:07.795Z,55.90
2018-06-24T01:37:36.409Z,55.92
2018-06-24T01:40:05.280Z,55.62
2018-06-24T01:42:34.293Z,56.77
2018-06-24T01:45:02.819Z,56.48
2018-06-24T01:47:32.032Z,56.15
2018-06-24T01:50:00.647Z,56.18
2018-06-24T01:52:31.191Z,56.78
2018-06-24T01:55:00.010Z,57.48
2018-06-24T01:57:29.236Z,57.08
2018-06-24T01:59:57.849Z,56.68
2018-06-24T02:02:26.695Z,56.32
2018-06-24T02:04:55.961Z,57.76
2018-06-24T02:07:24.495Z,56.73
2018-06-24T02:09:53.278Z,58.28
2018-06-24T02:12:22.541Z,57.35
2018-06-24T02:14:52.503Z,57.15
2018-06-24T02:17:21.892Z,56.54
2018-06-24T02:19:50.332Z,56.78
2018-06-24T02:22:19.418Z,57.06
2018-06-24T02:24:48.931Z,56.89
2018-06-24T02:27:17.957Z,57.17
2018-06-24T02:29:47.710Z,57.69
2018-06-24T02:32:16.311Z,57.92
2018-06-24T02:34:44.896Z,57.88
2018-06-24T02:37:13.554Z,58.21
2018-06-24T02:39:42.903Z,58.29
2018-06-24T02:42:12.142Z,58.29
2018-06-24T02:44:41.066Z,58.20
2018-06-24T02:47:11.487Z,58.33
2018-06-24T02:49:42.063Z,58.45
2018-06-24T02:52:11.322Z,59.00
2018-06-24T02:54:40.943Z,59.07
2018-06-24T02:57:11.192Z,59.79
2018-06-24T02:59:40.694Z,59.33
2018-06-24T03:02:10.132Z,59.66
2018-06-24T03:04:39.194Z,59.43
2018-06-24T03:07:07.757Z,59.41
2018-06-24T03:09:37.792Z,59.29
2018-06-24T03:12:06.781Z,59.24
2018-06-24T03:14:35.306Z,59.14
2018-06-24T03:17:04.422Z,59.58
2018-06-24T03:19:33.386Z,59.55
2018-06-24T03:22:02.177Z,59.72
2018-06-24T03:24:31.530Z,59.76
2018-06-24T03:27:00.974Z,59.65
2018-06-24T03:29:29.537Z,59.78
2018-06-24T03:31:58.643Z,60.02
2018-06-24T03:34:27.208Z,59.93
2018-06-24T03:36:57.792Z,60.34
2018-06-24T03:39:26.338Z,60.54
2018-06-24T03:41:54.916Z,60.20
2018-06-24T03:44:24.390Z,60.06
2018-06-24T03:46:53.470Z,60.30
2018-06-24T03:49:22.248Z,60.46
2018-06-24T03:51:51.668Z,59.88
2018-06-24T03:54:22.246Z,60.01
2018-06-24T03:56:51.282Z,59.88
2018-06-24T03:59:19.911Z,59.92
2018-06-24T04:01:48.730Z,59.74
2018-06-24T04:04:18.543Z,59.64
2018-06-24T04:06:47.640Z,59.45
2018-06-24T04:09:17.302Z,59.45
2018-06-24T04:11:46.463Z,59.65
2018-06-24T04:14:15.056Z,59.71
2018-06-24T04:16:43.554Z,59.54
2018-06-24T04:19:12.624Z,60.32
2018-06-24T04:21:41.861Z,60.30
2018-06-24T04:24:10.774Z,59.66
2018-06-24T04:26:41.046Z,59.65
2018-06-24T04:29:11.696Z,59.35
2018-06-24T04:31:42.840Z,59.68
2018-06-24T04:34:11.360Z,59.74
2018-06-24T04:36:40.193Z,59.69
2018-06-24T04:39:10.317Z,60.04
2018-06-24T04:41:39.519Z,59.92
2018-06-24T04:44:08.475Z,60.17
2018-06-24T04:46:37.573Z,60.45
2018-06-24T04:49:06.107Z,59.90
2018-06-24T04:51:34.744Z,59.48
2018-06-24T04:54:03.527Z,59.72
2018-06-24T04:56:32.075Z,59.85
2018-06-24T04:59:01.266Z,59.30
2018-06-24T05:01:29.832Z,58.69
2018-06-24T05:03:59.271Z,58.60
2018-06-24T05:06:28.700Z,58.71
2018-06-24T05:08:57.230Z,59.24
2018-06-24T05:11:27.527Z,59.95
2018-06-24T05:13:56.473Z,59.55
2018-06-24T05:16:25.046Z,59.12
2018-06-24T05:18:54.040Z,58.84
2018-06-24T05:21:22.704Z,58.88
2018-06-24T05:23:51.197Z,58.07
2018-06-24T05:26:20.014Z,57.87
2018-06-24T05:28:49.012Z,57.47
2018-06-24T05:31:17.799Z,59.17
2018-06-24T05:33:46.899Z,59.48
2018-06-24T05:36:15.379Z,59.87
2018-06-24T05:38:44.013Z,58.87
2018-06-24T05:41:12.642Z,59.11
2018-06-24T05:43:41.177Z,59.06
2018-06-24T05:46:09.781Z,59.42
2018-06-24T05:48:38.346Z,58.94
2018-06-24T05:51:07.669Z,58.88
2018-06-24T05:53:36.246Z,58.80
2018-06-24T05:56:04.863Z,58.76
2018-06-24T05:58:34.245Z,59.19
2018-06-24T06:01:07.098Z,58.95
2018-06-24T06:03:36.108Z,58.19
2018-06-24T06:06:05.651Z,57.58
2018-06-24T06:08:34.397Z,57.62
2018-06-24T06:11:03.086Z,57.44
2018-06-24T06:13:32.531Z,57.27
2018-06-24T06:16:01.311Z,57.42
2018-06-24T06:18:31.618Z,56.51
2018-06-24T06:21:00.878Z,56.72
2018-06-24T06:23:29.473Z,57.51
2018-06-24T06:25:58.666Z,55.52
2018-06-24T06:28:27.427Z,55.79
2018-06-24T06:30:55.948Z,55.34
2018-06-24T06:33:24.499Z,54.28
2018-06-24T06:35:53.091Z,54.32
2018-06-24T06:38:21.976Z,54.51
2018-06-24T06:40:50.465Z,54.02
2018-06-24T06:43:18.982Z,54.58
2018-06-24T06:45:48.269Z,53.97
2018-06-24T06:48:16.958Z,53.69
2018-06-24T06:50:45.487Z,53.69
2018-06-24T06:53:14.113Z,51.97
2018-06-24T06:55:42.696Z,50.46
2018-06-24T06:58:11.267Z,51.77
2018-06-24T07:00:39.841Z,52.03
2018-06-24T07:03:08.377Z,51.89
2018-06-24T07:05:37.632Z,52.93
2018-06-24T07:08:06.326Z,51.64
2018-06-24T07:10:35.241Z,51.39
2018-06-24T07:13:03.844Z,52.31
2018-06-24T07:15:32.704Z,52.38
2018-06-24T07:18:01.614Z,51.82
2018-06-24T07:20:30.106Z,52.27
2018-06-24T07:22:58.673Z,52.19
2018-06-24T07:25:27.165Z,51.15
2018-06-24T07:27:55.702Z,50.17
2018-06-24T07:30:24.317Z,50.71
2018-06-24T07:32:53.044Z,49.97
2018-06-24T07:35:21.667Z,48.42
2018-06-24T07:37:50.349Z,49.67
2018-06-24T07:40:18.896Z,48.72
2018-06-24T07:42:47.490Z,49.46
2018-06-24T07:45:17.191Z,49.05
2018-06-24T07:47:45.680Z,48.48
2018-06-24T07:50:14.300Z,47.33
2018-06-24T07:52:42.830Z,47.74
2018-06-24T07:55:11.381Z,47.79
2018-06-24T07:57:40.974Z,47.79
2018-06-24T08:00:10.697Z,47.54
2018-06-24T08:02:41.010Z,47.27
2018-06-24T08:05:09.465Z,46.99
2018-06-24T08:07:38.016Z,47.39
2018-06-24T08:10:06.548Z,47.91
2018-06-24T08:12:35.689Z,47.70
2018-06-24T08:15:04.944Z,48.63
2018-06-24T08:17:33.488Z,48.18
2018-06-24T08:20:01.903Z,47.85
2018-06-24T08:22:31.054Z,47.01
2018-06-24T08:24:59.857Z,48.13
2018-06-24T08:27:28.396Z,47.98
2018-06-24T08:29:56.987Z,46.31
2018-06-24T08:32:25.488Z,44.84
2018-06-24T08:34:53.997Z,45.61
2018-06-24T08:37:23.084Z,45.10
2018-06-24T08:39:51.644Z,44.40
2018-06-24T08:42:20.229Z,44.22
2018-06-24T08:44:49.484Z,44.98
2018-06-24T08:47:18.345Z,45.22
2018-06-24T08:49:47.357Z,42.69
2018-06-24T08:52:15.926Z,44.08
2018-06-24T08:54:44.520Z,44.03
2018-06-24T08:57:13.066Z,43.17
2018-06-24T08:59:41.550Z,43.12
2018-06-24T09:02:10.284Z,42.77
2018-06-24T09:04:38.799Z,43.59
2018-06-24T09:07:07.376Z,44.20
2018-06-24T09:09:36.059Z,43.04
2018-06-24T09:12:05.257Z,42.73
2018-06-24T09:14:33.794Z,42.06
2018-06-24T09:17:02.629Z,42.54
2018-06-24T09:19:31.220Z,41.85
2018-06-24T09:22:00.044Z,41.86
2018-06-24T09:24:28.572Z,41.30
2018-06-24T09:26:57.290Z,40.41
2018-06-24T09:29:26.209Z,41.01
2018-06-24T09:31:54.842Z,41.56
2018-06-24T09:34:27.336Z,39.73
2018-06-24T09:36:56.623Z,38.04
2018-06-24T09:39:28.148Z,38.55
2018-06-24T09:41:57.407Z,40.15
2018-06-24T09:44:48.031Z,39.67
2018-06-24T09:47:18.701Z,39.96
2018-06-24T09:49:55.596Z,39.43
2018-06-24T09:52:24.996Z,39.80
2018-06-24T09:54:54.190Z,39.19
2018-06-24T09:57:23.544Z,39.76
2018-06-24T09:59:52.261Z,39.73
2018-06-24T10:02:20.865Z,38.22
2018-06-24T10:04:49.791Z,37.62
2018-06-24T10:07:18.631Z,35.95
2018-06-24T10:09:59.092Z,34.51
2018-06-24T10:12:27.976Z,34.91
2018-06-24T10:14:56.720Z,34.27
2018-06-24T10:17:28.045Z,35.86
2018-06-24T10:19:56.782Z,35.70
2018-06-24T10:22:27.590Z,36.39
2018-06-24T10:24:56.505Z,35.09
2018-06-24T10:27:25.388Z,34.86
2018-06-24T10:29:56.184Z,36.15
2018-06-24T10:32:27.719Z,35.52
2018-06-24T10:34:59.458Z,35.84
2018-06-24T10:37:32.453Z,34.64
2018-06-24T10:40:01.595Z,34.20
2018-06-24T10:42:33.170Z,34.78
2018-06-24T10:45:02.702Z,35.14
2018-06-24T10:47:31.381Z,33.76
2018-06-24T10:50:00.838Z,33.61
2018-06-24T10:52:33.420Z,34.09
2018-06-24T10:55:03.775Z,34.24
2018-06-24T10:57:32.684Z,33.16
2018-06-24T11:00:01.452Z,33.47
2018-06-24T11:02:30.710Z,32.86
2018-06-24T11:05:00.553Z,32.55
2018-06-24T11:07:29.349Z,32.25
2018-06-24T11:09:59.324Z,32.21
2018-06-24T11:12:28.071Z,32.46
2018-06-24T11:14:57.473Z,33.10
2018-06-24T11:17:26.531Z,33.98
2018-06-24T11:19:55.185Z,33.02
2018-06-24T11:22:24.961Z,33.41
2018-06-24T11:24:56.243Z,33.94
2018-06-24T11:27:27.395Z,32.89
2018-06-24T11:29:57.034Z,33.59
2018-06-24T11:32:25.888Z,33.98
2018-06-24T11:34:57.564Z,34.95
2018-06-24T11:37:26.991Z,34.72
2018-06-24T11:40:00.031Z,34.48
2018-06-24T11:42:29.713Z,35.59
2018-06-24T11:45:06.794Z,35.47
2018-06-24T11:47:37.362Z,35.52
2018-06-24T11:50:08.237Z,37.17
2018-06-24T11:52:37.096Z,36.67
2018-06-24T11:55:06.852Z,36.61
2018-06-24T11:57:36.684Z,37.03
2018-06-24T12:00:07.158Z,37.37
2018-06-24T12:02:40.052Z,36.69
2018-06-24T12:05:10.472Z,36.40
2018-06-24T12:07:39.069Z,36.02
2018-06-24T12:10:09.413Z,36.51
2018-06-24T12:12:38.399Z,37.30
2018-06-24T12:15:11.240Z,36.33
2018-06-24T12:17:40.295Z,37.08
2018-06-24T12:20:09.547Z,37.72
2018-06-24T12:22:44.595Z,36.96
2018-06-24T12:25:14.042Z,36.86
2018-06-24T12:27:48.186Z,36.84
2018-06-24T12:30:17.957Z,36.38
2018-06-24T12:32:47.348Z,36.30
2018-06-24T12:35:16.710Z,37.71
2018-06-24T12:37:50.065Z,36.60
2018-06-24T12:40:26.968Z,37.21
2018-06-24T12:42:55.567Z,37.48
2018-06-24T12:45:24.888Z,37.40
2018-06-24T12:47:54.309Z,37.05
2018-06-24T12:50:23.187Z,36.95
2018-06-24T12:52:53.472Z,36.18
2018-06-24T12:55:23.428Z,35.22
2018-06-24T12:57:53.110Z,35.02
2018-06-24T13:00:24.810Z,33.88
2018-06-24T13:02:53.546Z,32.55
2018-06-24T13:05:22.236Z,29.65
2018-06-24T13:07:52.530Z,30.98
2018-06-24T13:10:31.081Z,31.33
2018-06-24T13:13:12.838Z,30.60
2018-06-24T13:15:50.989Z,31.96
2018-06-24T13:18:36.923Z,32.70
2018-06-24T13:21:10.490Z,32.56
2018-06-24T13:23:44.664Z,34.19
2018-06-24T13:26:22.713Z,32.98
2018-06-24T13:29:02.812Z,33.40
2018-06-24T13:31:35.475Z,32.75
2018-06-24T13:34:09.271Z,30.70
2018-06-24T13:36:48.166Z,31.19
2018-06-24T13:39:20.271Z,32.33
2018-06-24T13:47:01.931Z,32.49
2018-06-24T13:49:37.113Z,29.78
2018-06-24T13:52:07.591Z,29.29
2018-06-24T13:54:41.947Z,28.59
2018-06-24T13:57:21.181Z,26.59
2018-06-24T13:59:52.710Z,26.81
2018-06-24T14:02:21.998Z,26.51
2018-06-24T14:04:52.431Z,25.66
2018-06-24T14:07:21.192Z,26.70
2018-06-24T14:09:53.381Z,28.27
2018-06-24T14:12:25.505Z,28.14
2018-06-24T14:14:58.731Z,27.09
2018-06-24T14:17:31.214Z,28.14
2018-06-24T14:20:01.705Z,28.92
2018-06-24T14:22:32.886Z,28.21
2018-06-24T14:25:04.200Z,28.95
2018-06-24T14:27:35.301Z,28.65
2018-06-24T14:30:04.273Z,28.58
2018-06-24T14:32:37.759Z,28.40
2018-06-24T14:35:07.074Z,29.78
2018-06-24T14:37:37.627Z,29.12
2018-06-24T14:40:06.226Z,28.93
2018-06-24T14:42:36.409Z,28.50
2018-06-24T14:45:08.838Z,28.74
2018-06-24T14:47:40.846Z,29.52
2018-06-24T14:50:12.603Z,30.77
2018-06-24T14:52:43.057Z,30.57
2018-06-24T14:55:12.958Z,31.09
2018-06-24T14:57:48.079Z,31.45
2018-06-24T15:00:17.478Z,31.77
2018-06-24T15:02:47.145Z,31.23
2018-06-24T15:05:20.539Z,32.15
2018-06-24T15:07:50.510Z,32.57
2018-06-24T15:10:20.658Z,32.30
2018-06-24T15:12:50.193Z,32.46
2018-06-24T15:15:20.811Z,31.96
2018-06-24T15:17:54.328Z,32.29
2018-06-24T15:20:23.220Z,32.64
2018-06-24T15:22:51.860Z,32.79
2018-06-24T15:25:25.129Z,33.18
2018-06-24T15:27:55.529Z,33.16
2018-06-24T15:30:31.071Z,33.61
2018-06-24T15:33:01.805Z,33.54
2018-06-24T15:35:31.699Z,33.16
2018-06-24T15:38:01.622Z,33.62
2018-06-24T15:40:51.313Z,35.19
2018-06-24T15:43:41.859Z,34.54
2018-06-24T15:46:11.849Z,33.42
2018-06-24T15:52:12.740Z,34.24
2018-06-24T15:54:44.147Z,33.76
2018-06-24T15:57:25.437Z,34.48
2018-06-24T16:00:16.664Z,34.34
2018-06-24T16:03:09.097Z,34.34
2018-06-24T16:05:40.561Z,34.86
2018-06-24T16:08:10.968Z,35.46
2018-06-24T16:10:47.778Z,36.04
2018-06-24T16:16:10.065Z,35.05
2018-06-24T16:18:44.837Z,35.27
2018-06-24T16:21:15.262Z,35.71
2018-06-24T16:23:46.500Z,35.85
2018-06-24T16:26:22.117Z,36.45
2018-06-24T16:28:52.286Z,36.17
2018-06-24T16:31:23.583Z,34.90
2018-06-24T16:33:59.387Z,34.62
2018-06-24T16:36:29.012Z,35.59
2018-06-24T16:39:03.365Z,36.12
2018-06-24T16:41:32.092Z,35.64
2018-06-24T16:44:05.099Z,36.19
2018-06-24T16:46:34.629Z,36.02
2018-06-24T16:49:04.790Z,37.02
2018-06-24T16:51:35.249Z,36.69
2018-06-24T16:54:05.692Z,36.41
2018-06-24T16:56:38.741Z,37.85
2018-06-24T16:59:09.761Z,37.56
2018-06-24T17:01:40.193Z,37.54
2018-06-24T17:04:12.308Z,37.89
2018-06-24T17:06:46.097Z,37.23
2018-06-24T17:09:15.797Z,37.28
2018-06-24T17:11:48.081Z,36.85
2018-06-24T17:14:16.735Z,36.64
2018-06-24T17:16:46.444Z,37.11
2018-06-24T17:19:19.773Z,37.34
2018-06-24T17:21:50.233Z,37.25
2018-06-24T17:24:21.517Z,37.67
2018-06-24T17:26:52.937Z,36.56
2018-06-24T17:29:23.112Z,37.31
2018-06-24T17:31:59.010Z,37.19
2018-06-24T17:34:32.031Z,37.40
2018-06-24T17:37:17.540Z,38.32
2018-06-24T17:39:49.084Z,37.25
2018-06-24T17:42:19.074Z,38.86
2018-06-24T17:44:48.168Z,37.95
2018-06-24T17:47:18.982Z,38.15
2018-06-24T17:49:50.648Z,37.90
2018-06-24T17:52:24.302Z,37.73
2018-06-24T17:54:55.959Z,38.32
2018-06-24T17:57:48.354Z,38.62
2018-06-24T18:00:19.493Z,39.05
2018-06-24T18:02:58.548Z,39.10
2018-06-24T18:05:30.617Z,39.06
2018-06-24T18:08:01.208Z,39.20
2018-06-24T18:10:32.562Z,39.50
2018-06-24T18:13:03.304Z,39.45
2018-06-24T18:15:44.778Z,39.43
2018-06-24T18:23:23.559Z,39.47
2018-06-24T18:26:07.535Z,40.14
2018-06-24T18:35:04.657Z,40.14
2018-06-24T18:40:52.825Z,40.56
2018-06-24T18:43:56.387Z,40.42
2018-06-24T18:56:35.172Z,41.36
2018-06-24T18:59:05.261Z,41.20
2018-06-24T19:01:35.009Z,40.31
2018-06-24T19:04:04.551Z,41.21
2018-06-24T19:06:33.787Z,41.56
2018-06-24T19:09:02.584Z,41.81
2018-06-24T19:11:31.421Z,42.03
2018-06-24T19:14:00.625Z,42.18
2018-06-24T19:16:29.569Z,42.41
2018-06-24T19:18:59.160Z,42.63
2018-06-24T19:21:27.949Z,42.05
2018-06-24T19:23:57.060Z,42.39
2018-06-24T19:26:25.786Z,42.26
2018-06-24T19:28:54.500Z,42.69
2018-06-24T19:31:27.626Z,43.11
2018-06-24T19:33:58.113Z,41.94
2018-06-24T19:36:29.958Z,42.82
2018-06-24T19:38:58.932Z,43.14
2018-06-24T19:41:27.718Z,42.08
2018-06-24T19:43:57.098Z,42.97
2018-06-24T19:46:25.735Z,42.87
2018-06-24T19:48:56.452Z,42.95
2018-06-24T19:51:26.006Z,42.78
2018-06-24T19:53:56.440Z,43.47
2018-06-24T19:56:26.107Z,43.30
2018-06-24T19:58:56.120Z,43.85
2018-06-24T20:01:25.634Z,43.88
2018-06-24T20:03:55.034Z,43.93
2018-06-24T20:06:23.608Z,44.58
2018-06-24T20:08:52.122Z,43.83
2018-06-24T20:11:20.674Z,43.45
2018-06-24T20:13:49.464Z,43.64
2018-06-24T20:16:18.380Z,43.31
2018-06-24T20:18:47.095Z,43.49
2018-06-24T20:21:15.931Z,43.60
2018-06-24T20:23:44.461Z,43.55
2018-06-24T20:26:13.387Z,43.45
2018-06-24T20:28:41.992Z,43.86
2018-06-24T20:31:10.466Z,43.90
2018-06-24T20:33:39.023Z,44.67
2018-06-24T20:36:07.926Z,44.26
2018-06-24T20:38:36.749Z,44.12
2018-06-24T20:41:05.320Z,44.65
2018-06-24T20:43:33.877Z,44.65
2018-06-24T20:46:02.481Z,44.65
2018-06-24T20:48:30.993Z,44.76
2018-06-24T20:50:59.511Z,45.67
2018-06-24T20:53:28.271Z,44.81
2018-06-24T20:55:57.754Z,45.24
2018-06-24T20:58:26.343Z,45.00
2018-06-24T21:00:54.847Z,44.69
2018-06-24T21:03:23.947Z,45.40
2018-06-24T21:05:52.652Z,45.10
2018-06-24T21:08:21.189Z,45.01
2018-06-24T21:10:49.773Z,44.90
2018-06-24T21:13:18.346Z,45.01
2018-06-24T21:15:46.997Z,45.26
2018-06-24T21:18:15.586Z,45.41
2018-06-24T21:20:44.043Z,45.44
2018-06-24T21:23:12.620Z,45.81
2018-06-24T21:25:41.170Z,46.41
2018-06-24T21:28:09.720Z,46.01
2018-06-24T21:30:38.377Z,46.23
2018-06-24T21:33:06.962Z,46.90
2018-06-24T21:35:35.607Z,46.45
2018-06-24T21:38:04.072Z,46.75
2018-06-24T21:40:32.773Z,46.58
2018-06-24T21:43:01.235Z,47.03
2018-06-24T21:45:29.724Z,46.82
2018-06-24T21:47:58.292Z,47.23
2018-06-24T21:50:27.000Z,47.57
2018-06-24T21:52:55.849Z,47.42
2018-06-24T21:55:24.361Z,47.11
2018-06-24T21:57:52.896Z,47.09
2018-06-24T22:00:21.508Z,47.51
2018-06-24T22:02:50.885Z,47.50
2018-06-24T22:05:19.519Z,47.64
2018-06-24T22:07:47.981Z,48.37
2018-06-24T22:10:23.329Z,48.05
2018-06-24T22:12:52.875Z,48.30
2018-06-24T22:15:21.410Z,48.28
2018-06-24T22:17:49.945Z,48.13
2018-06-24T22:20:18.490Z,47.93
2018-06-24T22:22:47.086Z,48.47
2018-06-24T22:25:15.692Z,48.54
2018-06-24T22:27:44.375Z,48.46
2018-06-24T22:30:12.917Z,48.26
2018-06-24T22:32:41.381Z,48.57
2018-06-24T22:35:09.913Z,49.08
2018-06-24T22:37:38.487Z,48.82
2018-06-24T22:40:07.033Z,48.95
2018-06-24T22:42:35.594Z,49.14
2018-06-24T22:45:04.116Z,48.33
2018-06-24T22:47:32.613Z,48.56
2018-06-24T22:50:01.142Z,49.53
2018-06-24T22:52:29.615Z,48.82
2018-06-24T22:54:58.328Z,48.51
2018-06-24T22:57:26.923Z,48.41
2018-06-24T23:00:06.179Z,48.56
2018-06-24T23:02:34.608Z,48.21
2018-06-24T23:05:03.050Z,49.15
2018-06-24T23:07:31.521Z,48.74
2018-06-24T23:10:00.741Z,47.74
2018-06-24T23:12:29.233Z,47.99
2018-06-24T23:14:57.875Z,48.11
2018-06-24T23:17:26.449Z,48.07
2018-06-24T23:19:55.870Z,48.33
2018-06-24T23:22:24.375Z,49.08
2018-06-24T23:24:53.700Z,48.29
2018-06-24T23:27:22.502Z,48.86
2018-06-24T23:29:51.816Z,48.69
2018-06-24T23:32:20.540Z,48.80
2018-06-24T23:34:49.013Z,48.90
2018-06-24T23:37:17.562Z,49.06
2018-06-24T23:39:46.022Z,48.81
2018-06-24T23:42:14.661Z,49.21
2018-06-24T23:44:43.554Z,49.11
2018-06-24T23:47:12.027Z,49.77
2018-06-24T23:49:40.557Z,49.78
2018-06-24T23:52:09.178Z,49.37
2018-06-24T23:54:37.690Z,49.32
2018-06-24T23:57:06.280Z,49.67
2018-06-24T23:59:35.446Z,49.27
